Time;durP1;ratioP1;P1;durP2;ratioP2;P2;SDS_P1;SDS_P2;PMS_P1;PMS_P2;Temp;Humidity;BMP_temperature;BMP_pressure;BME280_temperature;BME280_humidity;BME280_pressure;Samples;Min_cycle;Max_cycle;Signal;HPM_P1;HPM_P2
2023/05/31 00:00:31;;;;;;;6.88;5.25;;;;;;;-144.85;100.00;61331.59;5095172;28;31671;-72
2023/05/31 00:02:58;;;;;;;6.20;5.47;;;;;;;-144.85;100.00;61331.59;5063706;28;31754;-72
2023/05/31 00:05:26;;;;;;;7.82;5.10;;;;;;;-144.85;100.00;61331.59;5095609;28;31933;-72
2023/05/31 00:07:53;;;;;;;9.48;5.18;;;;;;;-144.85;100.00;61331.59;5095794;28;32550;-72
2023/05/31 00:10:20;;;;;;;9.30;5.60;;;;;;;-144.85;100.00;61331.59;5095998;28;31782;-72
2023/05/31 00:12:48;;;;;;;6.35;4.88;;;;;;;-144.85;100.00;61331.59;5088121;28;30685;-72
2023/05/31 00:15:15;;;;;;;7.40;5.32;;;;;;;-144.85;100.00;61331.59;5094400;28;31457;-72
2023/05/31 00:17:42;;;;;;;8.77;5.07;;;;;;;-144.85;100.00;61331.59;5095842;28;32024;-72
2023/05/31 00:20:12;;;;;;;9.15;5.45;;;;;;;-144.85;100.00;61331.59;5096492;28;31662;-72
2023/05/31 00:22:39;;;;;;;9.50;5.63;;;;;;;-144.85;100.00;61331.59;5095892;28;31884;-75
2023/05/31 00:25:07;;;;;;;9.45;5.25;;;;;;;-144.85;100.00;61331.59;5095851;28;32518;-74
2023/05/31 00:27:34;;;;;;;7.65;5.35;;;;;;;-144.85;100.00;61331.59;5066109;28;31176;-72
2023/05/31 00:30:01;;;;;;;8.75;5.30;;;;;;;-144.85;100.00;61331.59;5080820;28;31267;-72
2023/05/31 00:32:28;;;;;;;9.57;5.50;;;;;;;-144.85;100.00;61331.59;5081133;28;32177;-72
2023/05/31 00:34:57;;;;;;;11.10;5.55;;;;;;;-144.85;100.00;61331.59;5099145;28;31534;-72
2023/05/31 00:37:24;;;;;;;7.53;5.38;;;;;;;-144.85;100.00;61331.59;5106014;28;33451;-72
2023/05/31 00:39:51;;;;;;;7.82;5.47;;;;;;;-144.85;100.00;61331.59;5086939;28;33372;-73
2023/05/31 00:42:18;;;;;;;9.20;5.78;;;;;;;-144.85;100.00;61331.59;5080547;28;32880;-73
2023/05/31 00:44:45;;;;;;;6.95;5.18;;;;;;;-144.85;100.00;61331.59;5080975;28;30710;-73
2023/05/31 00:47:13;;;;;;;7.55;5.82;;;;;;;-144.85;100.00;61331.59;5084149;28;32741;-73
2023/05/31 00:49:40;;;;;;;8.30;5.55;;;;;;;-144.85;100.00;61331.59;5081141;28;31003;-73
2023/05/31 00:52:08;;;;;;;7.53;5.47;;;;;;;-144.85;100.00;61331.59;5099616;28;32658;-73
2023/05/31 00:54:36;;;;;;;7.95;5.60;;;;;;;-144.85;100.00;61331.59;5076899;28;31331;-73
2023/05/31 00:57:04;;;;;;;7.60;5.38;;;;;;;-144.85;100.00;61331.59;5074961;28;31294;-73
2023/05/31 00:59:31;;;;;;;9.90;5.40;;;;;;;-144.85;100.00;61331.59;5081262;28;32470;-73
2023/05/31 01:02:00;;;;;;;8.30;5.75;;;;;;;-144.85;100.00;61331.59;5098552;28;31993;-73
2023/05/31 01:04:27;;;;;;;7.65;5.20;;;;;;;-144.85;100.00;61331.59;5055953;28;31736;-73
2023/05/31 01:06:56;;;;;;;8.35;5.90;;;;;;;-144.85;100.00;61331.59;5094858;28;32296;-73
2023/05/31 01:09:23;;;;;;;9.13;5.63;;;;;;;-144.85;100.00;61331.59;5096816;28;32007;-74
2023/05/31 01:12:09;;;;;;;8.52;5.32;;;;;;;-144.85;100.00;61331.59;5064020;28;31838;-74
2023/05/31 01:15:13;;;;;;;7.68;5.20;;;;;;;-144.85;100.00;61331.59;5080385;28;30744;-73
2023/05/31 01:18:00;;;;;;;7.80;5.43;;;;;;;-144.85;100.00;61331.59;5059904;28;31479;-74
2023/05/31 01:20:32;;;;;;;8.98;5.75;;;;;;;-144.85;100.00;61331.59;5099397;28;33246;-74
2023/05/31 01:23:38;;;;;;;8.48;5.50;;;;;;;-144.85;100.00;61331.59;5066844;28;31105;-74
2023/05/31 01:26:18;;;;;;;8.32;5.93;;;;;;;-144.85;100.00;61331.59;5079289;28;31821;-74
2023/05/31 01:28:50;;;;;;;8.43;5.50;;;;;;;-144.85;100.00;61331.59;5080020;28;32737;-73
2023/05/31 01:31:20;;;;;;;8.57;5.70;;;;;;;-144.85;100.00;61331.59;5079885;28;32514;-73
2023/05/31 01:33:49;;;;;;;8.73;6.03;;;;;;;-144.85;100.00;61331.59;5080641;28;31649;-73
2023/05/31 01:36:16;;;;;;;8.38;5.60;;;;;;;-144.85;100.00;61331.59;5066778;28;30189;-74
2023/05/31 01:38:44;;;;;;;8.85;5.85;;;;;;;-144.85;100.00;61331.59;5079576;28;32522;-73
2023/05/31 01:41:12;;;;;;;9.85;5.68;;;;;;;-144.85;100.00;61331.59;5049465;28;31243;-74
2023/05/31 01:43:44;;;;;;;7.78;6.07;;;;;;;-144.85;100.00;61331.59;5079218;28;33077;-73
2023/05/31 01:46:16;;;;;;;9.48;5.85;;;;;;;-144.85;100.00;61331.59;5079863;28;30783;-73
2023/05/31 01:48:46;;;;;;;7.97;5.85;;;;;;;-144.85;100.00;61331.59;5098340;28;32806;-73
2023/05/31 01:51:14;;;;;;;8.70;5.65;;;;;;;-144.85;100.00;61331.59;5062689;28;32188;-73
2023/05/31 01:53:42;;;;;;;9.30;5.85;;;;;;;-144.85;100.00;61331.59;5096412;28;30826;-73
2023/05/31 01:56:10;;;;;;;9.05;6.00;;;;;;;-144.85;100.00;61331.59;5092447;28;30558;-73
2023/05/31 01:58:48;;;;;;;8.10;5.65;;;;;;;-144.85;100.00;61331.59;5080490;28;31343;-74
2023/05/31 02:01:17;;;;;;;8.75;5.85;;;;;;;-144.85;100.00;61331.59;5058264;28;31226;-74
2023/05/31 02:03:45;;;;;;;9.43;6.35;;;;;;;-144.85;100.00;61331.59;5077711;28;31071;-73
2023/05/31 02:06:15;;;;;;;9.48;6.32;;;;;;;-144.85;100.00;61331.59;5067384;28;31445;-73
2023/05/31 02:08:42;;;;;;;9.13;5.60;;;;;;;-144.85;100.00;61331.59;5092726;28;32920;-72
2023/05/31 02:11:10;;;;;;;9.95;5.90;;;;;;;-144.85;100.00;61331.59;5065993;28;30917;-72
2023/05/31 02:13:37;;;;;;;10.57;6.35;;;;;;;-144.85;100.00;61331.59;5079785;28;30896;-72
2023/05/31 02:16:05;;;;;;;8.95;6.05;;;;;;;-144.85;100.00;61331.59;5086945;28;30776;-72
2023/05/31 02:18:32;;;;;;;9.70;6.28;;;;;;;-144.85;100.00;61331.59;5079484;28;32860;-72
2023/05/31 02:20:59;;;;;;;11.55;6.40;;;;;;;-144.85;100.00;61331.59;5080192;28;31005;-72
2023/05/31 02:23:27;;;;;;;9.57;6.40;;;;;;;-144.85;100.00;61331.59;5067615;28;32171;-72
2023/05/31 02:25:55;;;;;;;9.65;6.35;;;;;;;-144.85;100.00;61331.59;5080087;28;32748;-72
2023/05/31 02:28:22;;;;;;;9.38;6.40;;;;;;;-144.85;100.00;61331.59;5097886;28;32623;-72
2023/05/31 02:30:58;;;;;;;10.25;6.25;;;;;;;-144.85;100.00;61331.59;5077211;28;31144;-73
2023/05/31 02:33:26;;;;;;;9.07;6.38;;;;;;;-144.85;100.00;61331.59;5074862;28;30833;-72
2023/05/31 02:35:56;;;;;;;10.65;6.43;;;;;;;-144.85;100.00;61331.59;5080202;28;30496;-73
2023/05/31 02:38:24;;;;;;;13.30;6.47;;;;;;;-144.85;100.00;61331.59;5073713;28;32283;-72
2023/05/31 02:40:52;;;;;;;10.73;6.70;;;;;;;-144.85;100.00;61331.59;5092232;28;31407;-72
2023/05/31 02:43:19;;;;;;;11.60;6.43;;;;;;;-144.85;100.00;61331.59;5097176;28;31884;-72
2023/05/31 02:45:46;;;;;;;10.82;6.93;;;;;;;-144.85;100.00;61331.59;5100301;28;31479;-72
2023/05/31 02:48:14;;;;;;;10.45;6.50;;;;;;;-144.85;100.00;61331.59;5079422;28;32825;-72
2023/05/31 02:50:41;;;;;;;9.50;6.40;;;;;;;-144.85;100.00;61331.59;5096718;28;32978;-73
2023/05/31 02:53:22;;;;;;;9.82;6.50;;;;;;;-144.85;100.00;61331.59;5068689;28;31098;-73
2023/05/31 02:55:55;;;;;;;12.60;6.55;;;;;;;-144.85;100.00;61331.59;5090617;28;30717;-72
2023/05/31 02:58:22;;;;;;;10.63;6.50;;;;;;;-144.85;100.00;61331.59;5089411;28;32439;-73
2023/05/31 03:01:15;;;;;;;11.43;7.03;;;;;;;-144.85;100.00;61331.59;5083564;28;31984;-72
2023/05/31 03:04:00;;;;;;;;;;;;;;;-144.85;100.00;61331.59;5095980;28;32645;-73
2023/05/31 03:06:33;;;;;;;9.20;5.60;;;;;;;-144.85;100.00;61331.59;5088408;28;30552;-72
2023/05/31 03:09:03;;;;;;;12.07;7.10;;;;;;;-144.85;100.00;61331.59;5080055;28;20144;-72
2023/05/31 03:11:32;;;;;;;12.05;6.70;;;;;;;-144.85;100.00;61331.59;5078901;28;32468;-72
2023/05/31 03:13:59;;;;;;;11.77;6.78;;;;;;;-144.85;100.00;61331.59;5107480;28;31852;-72
2023/05/31 03:16:41;;;;;;;9.90;6.43;;;;;;;-144.85;100.00;61331.59;5079846;28;32277;-72
2023/05/31 03:19:12;;;;;;;8.68;6.30;;;;;;;-144.85;100.00;61331.59;5075806;28;31616;-73
2023/05/31 03:21:41;;;;;;;10.02;6.93;;;;;;;-144.85;100.00;61331.59;5060866;28;31655;-72
2023/05/31 03:24:08;;;;;;;11.18;6.55;;;;;;;-144.85;100.00;61331.59;5077112;28;31923;-72
2023/05/31 03:26:36;;;;;;;11.30;6.82;;;;;;;-144.85;100.00;61331.59;5065608;28;30534;-72
2023/05/31 03:29:03;;;;;;;11.55;6.72;;;;;;;-144.85;100.00;61331.59;5092110;28;32482;-73
2023/05/31 03:31:34;;;;;;;11.35;6.78;;;;;;;-144.85;100.00;61331.59;5096469;28;33304;-72
2023/05/31 03:34:01;;;;;;;10.52;6.80;;;;;;;-144.85;100.00;61331.59;5065808;28;33969;-72
2023/05/31 03:36:29;;;;;;;15.35;7.35;;;;;;;-144.85;100.00;61331.59;5088205;28;31866;-72
2023/05/31 03:38:59;;;;;;;11.30;7.13;;;;;;;-144.85;100.00;61331.59;5084341;28;32588;-72
2023/05/31 03:41:26;;;;;;;12.43;7.00;;;;;;;-144.85;100.00;61331.59;5058207;28;31018;-72
2023/05/31 03:43:53;;;;;;;11.80;7.50;;;;;;;-144.85;100.00;61331.59;5075507;28;33025;-72
2023/05/31 03:46:21;;;;;;;12.23;7.32;;;;;;;-144.85;100.00;61331.59;5077574;28;31260;-72
2023/05/31 03:48:48;;;;;;;10.93;7.07;;;;;;;-144.85;100.00;61331.59;5077921;28;31535;-72
2023/05/31 03:51:17;;;;;;;12.77;7.93;;;;;;;-144.85;100.00;61331.59;5077831;28;31346;-72
2023/05/31 03:53:45;;;;;;;12.02;7.18;;;;;;;-144.85;100.00;61331.59;5095523;28;32878;-72
2023/05/31 03:56:12;;;;;;;12.70;7.63;;;;;;;-144.85;100.00;61331.59;5100569;28;32022;-72
2023/05/31 03:58:40;;;;;;;12.63;8.00;;;;;;;-144.85;100.00;61331.59;5063687;28;31599;-72
2023/05/31 04:01:09;;;;;;;14.48;8.18;;;;;;;-144.85;100.00;61331.59;5076785;28;33054;-72
2023/05/31 04:03:36;;;;;;;12.57;7.55;;;;;;;-144.85;100.00;61331.59;5080625;28;30937;-72
2023/05/31 04:06:07;;;;;;;14.82;8.27;;;;;;;-144.85;100.00;61331.59;5080992;28;31860;-72
2023/05/31 04:08:35;;;;;;;15.50;8.20;;;;;;;-144.85;100.00;61331.59;5084235;28;32787;-72
2023/05/31 04:11:02;;;;;;;14.82;7.72;;;;;;;-144.85;100.00;61331.59;5081703;28;32252;-72
2023/05/31 04:13:30;;;;;;;14.20;8.18;;;;;;;-144.85;100.00;61331.59;5098898;28;32083;-72
2023/05/31 04:15:57;;;;;;;12.35;7.75;;;;;;;-144.85;100.00;61331.59;5069878;28;30413;-72
2023/05/31 04:18:25;;;;;;;13.52;7.97;;;;;;;-144.85;100.00;61331.59;5064336;28;31271;-72
2023/05/31 04:20:52;;;;;;;12.32;7.70;;;;;;;-144.85;100.00;61331.59;5099683;28;32899;-72
2023/05/31 04:23:20;;;;;;;13.95;8.38;;;;;;;-144.85;100.00;61331.59;5099680;28;32130;-73
2023/05/31 04:25:47;;;;;;;14.30;8.85;;;;;;;-144.85;100.00;61331.59;5080563;28;32501;-72
2023/05/31 04:28:15;;;;;;;15.68;8.38;;;;;;;-144.85;100.00;61331.59;5069123;28;31348;-72
2023/05/31 04:30:44;;;;;;;15.82;8.13;;;;;;;-144.85;100.00;61331.59;5098290;28;32000;-72
2023/05/31 04:33:12;;;;;;;15.88;8.07;;;;;;;-144.85;100.00;61331.59;5063588;28;30926;-72
2023/05/31 04:35:40;;;;;;;13.77;7.72;;;;;;;-144.85;100.00;61331.59;5081614;28;32010;-72
2023/05/31 04:38:08;;;;;;;13.73;8.25;;;;;;;-144.85;100.00;61331.59;5099212;28;32500;-74
2023/05/31 04:40:35;;;;;;;14.20;8.63;;;;;;;-144.85;100.00;61331.59;5099719;28;32378;-72
2023/05/31 04:43:03;;;;;;;13.98;8.68;;;;;;;-144.85;100.00;61331.59;5061969;28;31278;-72
2023/05/31 04:45:32;;;;;;;13.57;8.55;;;;;;;-144.85;100.00;61331.59;5061224;28;30578;-72
2023/05/31 04:48:01;;;;;;;14.27;8.48;;;;;;;-144.85;100.00;61331.59;5078977;28;31376;-72
2023/05/31 04:50:29;;;;;;;16.30;8.75;;;;;;;-144.85;100.00;61331.59;5083646;28;32686;-72
2023/05/31 04:52:58;;;;;;;12.05;7.70;;;;;;;-144.85;100.00;61331.59;5101902;28;31723;-73
2023/05/31 04:55:26;;;;;;;14.40;8.15;;;;;;;-144.85;100.00;61331.59;5080171;28;30329;-73
2023/05/31 04:57:56;;;;;;;14.95;8.20;;;;;;;-144.85;100.00;61331.59;5083393;28;33077;-74
2023/05/31 05:00:23;;;;;;;13.65;8.57;;;;;;;-144.85;100.00;61331.59;5083858;28;30825;-74
2023/05/31 05:03:14;;;;;;;14.60;8.05;;;;;;;-144.85;100.00;61331.59;5096139;28;31488;-74
2023/05/31 05:05:44;;;;;;;15.27;8.57;;;;;;;-144.85;100.00;61331.59;5086279;28;31603;-74
2023/05/31 05:08:11;;;;;;;13.80;9.02;;;;;;;-144.85;100.00;61331.59;5054714;28;31471;-74
2023/05/31 05:10:40;;;;;;;14.65;8.45;;;;;;;-144.85;100.00;61331.59;5081054;28;32969;-74
2023/05/31 05:13:07;;;;;;;12.90;8.65;;;;;;;-144.85;100.00;61331.59;5078982;28;31085;-72
2023/05/31 05:15:37;;;;;;;16.20;8.68;;;;;;;-144.85;100.00;61331.59;5076489;28;30523;-73
2023/05/31 05:18:05;;;;;;;14.57;9.05;;;;;;;-144.85;100.00;61331.59;5079337;28;31460;-72
2023/05/31 05:20:35;;;;;;;13.90;8.82;;;;;;;-144.85;100.00;61331.59;5079928;28;31262;-73
2023/05/31 05:23:06;;;;;;;13.98;8.80;;;;;;;-144.85;100.00;61331.59;5080464;28;30534;-72
2023/05/31 05:25:35;;;;;;;14.38;9.02;;;;;;;-144.85;100.00;61331.59;5095339;28;31747;-73
2023/05/31 05:28:02;;;;;;;14.43;9.20;;;;;;;-144.85;100.00;61331.59;5080171;28;31206;-72
2023/05/31 05:30:30;;;;;;;17.85;9.13;;;;;;;-144.85;100.00;61331.59;5066925;28;30886;-73
2023/05/31 05:32:58;;;;;;;14.52;9.48;;;;;;;-144.85;100.00;61331.59;5092489;28;30931;-73
2023/05/31 05:35:25;;;;;;;15.63;9.23;;;;;;;-144.85;100.00;61331.59;5098355;28;31703;-73
2023/05/31 05:37:52;;;;;;;14.65;9.65;;;;;;;-144.85;100.00;61331.59;5079134;28;31481;-73
2023/05/31 05:40:20;;;;;;;18.58;9.68;;;;;;;-144.85;100.00;61331.59;5063693;28;31333;-72
2023/05/31 05:42:48;;;;;;;16.58;9.82;;;;;;;-144.85;100.00;61331.59;5062802;28;31185;-73
2023/05/31 05:45:15;;;;;;;18.33;9.68;;;;;;;-144.85;100.00;61331.59;5076094;28;30548;-72
2023/05/31 05:47:44;;;;;;;16.50;9.10;;;;;;;-144.85;100.00;61331.59;5082887;28;31645;-74
2023/05/31 05:50:15;;;;;;;16.75;9.65;;;;;;;-144.85;100.00;61331.59;5071966;28;31496;-73
2023/05/31 05:52:42;;;;;;;19.88;9.00;;;;;;;-144.85;100.00;61331.59;5095823;28;31220;-73
2023/05/31 05:55:10;;;;;;;13.88;9.25;;;;;;;-144.85;100.00;61331.59;5081471;28;30538;-73
2023/05/31 05:57:37;;;;;;;14.73;8.85;;;;;;;-144.85;100.00;61331.59;5078999;28;31207;-73
2023/05/31 06:00:24;;;;;;;17.70;9.68;;;;;;;-144.85;100.00;61331.59;5074449;28;31024;-73
2023/05/31 06:02:51;;;;;;;19.08;9.35;;;;;;;-144.85;100.00;61331.59;5094546;28;31836;-73
2023/05/31 06:05:25;;;;;;;15.48;9.38;;;;;;;-144.85;100.00;61331.59;5078151;28;31482;-73
2023/05/31 06:07:53;;;;;;;16.63;9.43;;;;;;;-144.85;100.00;61331.59;5055356;28;31432;-73
2023/05/31 06:10:21;;;;;;;14.60;9.55;;;;;;;-144.85;100.00;61331.59;5071457;28;31291;-72
2023/05/31 06:12:48;;;;;;;17.52;9.75;;;;;;;-144.85;100.00;61331.59;5052737;28;31073;-73
2023/05/31 06:15:17;;;;;;;15.82;9.25;;;;;;;-144.85;100.00;61331.59;5062399;28;30442;-73
2023/05/31 06:17:47;;;;;;;17.88;9.52;;;;;;;-144.85;100.00;61331.59;5081727;28;32853;-74
2023/05/31 06:20:15;;;;;;;14.07;8.77;;;;;;;-144.85;100.00;61331.59;5048467;28;31011;-74
2023/05/31 06:22:43;;;;;;;16.83;9.80;;;;;;;-144.85;100.00;61331.59;5076830;28;32669;-74
2023/05/31 06:25:13;;;;;;;15.50;9.73;;;;;;;-144.85;100.00;61331.59;5085368;28;31657;-74
2023/05/31 06:27:41;;;;;;;15.60;9.15;;;;;;;-144.85;100.00;61331.59;5078754;28;32453;-74
2023/05/31 06:30:09;;;;;;;18.92;9.60;;;;;;;-144.85;100.00;61331.59;5081532;28;30348;-74
2023/05/31 06:32:44;;;;;;;16.75;8.85;;;;;;;-144.85;100.00;61331.59;5064545;28;30995;-74
2023/05/31 06:35:16;;;;;;;16.63;9.18;;;;;;;-144.85;100.00;61331.59;5079101;28;32238;-74
2023/05/31 06:37:45;;;;;;;15.48;9.40;;;;;;;-144.85;100.00;61331.59;5080432;28;31121;-74
2023/05/31 06:40:13;;;;;;;17.23;9.38;;;;;;;-144.85;100.00;61331.59;5066991;28;31390;-74
2023/05/31 06:42:41;;;;;;;17.88;9.70;;;;;;;-144.85;100.00;61331.59;5091643;28;32703;-74
2023/05/31 06:45:25;;;;;;;16.15;9.57;;;;;;;-144.85;100.00;61331.59;5082511;28;30658;-74
2023/05/31 06:47:52;;;;;;;15.27;9.07;;;;;;;-144.85;100.00;61331.59;5096972;28;32850;-74
2023/05/31 06:50:22;;;;;;;18.80;9.52;;;;;;;-144.85;100.00;61331.59;5097420;28;32536;-74
2023/05/31 06:53:04;;;;;;;16.25;9.20;;;;;;;-144.85;100.00;61331.59;5092610;28;32648;-75
2023/05/31 06:55:42;;;;;;;14.30;8.95;;;;;;;-144.85;100.00;61331.59;5077818;28;30578;-75
2023/05/31 06:58:15;;;;;;;14.02;8.52;;;;;;;-144.85;100.00;61331.59;5089914;28;31431;-75
2023/05/31 07:00:42;;;;;;;14.35;8.65;;;;;;;-144.85;100.00;61331.59;5076225;28;32344;-75
2023/05/31 07:03:12;;;;;;;15.27;9.32;;;;;;;-144.85;100.00;61331.59;5068237;28;32212;-75
2023/05/31 07:05:42;;;;;;;14.85;8.90;;;;;;;-144.85;100.00;61331.59;5081869;28;30713;-74
2023/05/31 07:08:10;;;;;;;13.98;8.95;;;;;;;-144.85;100.00;61331.59;5075764;28;30866;-75
2023/05/31 07:10:55;;;;;;;;;;;;;;;-144.85;100.00;61331.59;5073442;28;32846;-75
2023/05/31 07:13:22;;;;;;;12.38;7.75;;;;;;;-144.85;100.00;61331.59;5094197;28;32878;-76
2023/05/31 07:15:50;;;;;;;16.70;8.63;;;;;;;-144.85;100.00;61331.59;5096934;28;32315;-75
2023/05/31 07:18:17;;;;;;;14.57;8.48;;;;;;;-144.85;100.00;61331.59;5083748;28;31448;-75
2023/05/31 07:20:46;;;;;;;19.50;8.55;;;;;;;-144.85;100.00;61331.59;5078036;28;30351;-76
2023/05/31 07:23:13;;;;;;;13.73;8.35;;;;;;;-144.85;100.00;61331.59;5097228;28;31749;-74
2023/05/31 07:25:40;;;;;;;14.85;9.07;;;;;;;-144.85;100.00;61331.59;5096841;28;31482;-75
2023/05/31 07:28:10;;;;;;;16.63;8.45;;;;;;;-144.85;100.00;61331.59;5096884;28;32505;-75
2023/05/31 07:30:37;;;;;;;16.08;8.18;;;;;;;-144.85;100.00;61331.59;5068867;28;31982;-74
2023/05/31 07:33:04;;;;;;;13.50;7.88;;;;;;;-144.85;100.00;61331.59;5093552;28;31767;-74
2023/05/31 07:35:32;;;;;;;15.85;8.55;;;;;;;-144.85;100.00;61331.59;5051204;28;32186;-75
2023/05/31 07:37:59;;;;;;;13.18;8.10;;;;;;;-144.85;100.00;61331.59;5097347;28;32527;-75
2023/05/31 07:40:26;;;;;;;12.63;8.40;;;;;;;-144.85;100.00;61331.59;5100626;28;31990;-75
2023/05/31 07:42:54;;;;;;;15.70;8.50;;;;;;;-144.85;100.00;61331.59;5048503;28;31988;-75
2023/05/31 07:45:21;;;;;;;13.48;8.35;;;;;;;-144.85;100.00;61331.59;5091082;28;31241;-75
2023/05/31 07:47:49;;;;;;;14.55;8.38;;;;;;;-144.85;100.00;61331.59;5099567;28;33407;-75
2023/05/31 07:50:16;;;;;;;14.75;8.70;;;;;;;-144.85;100.00;61331.59;5088009;28;32002;-75
2023/05/31 07:52:46;;;;;;;13.43;7.63;;;;;;;-144.85;100.00;61331.59;5098818;28;31884;-75
2023/05/31 07:55:13;;;;;;;14.32;8.55;;;;;;;-144.85;100.00;61331.59;5099420;28;33129;-75
2023/05/31 07:57:40;;;;;;;13.93;8.38;;;;;;;-144.85;100.00;61331.59;5099661;28;32233;-75
2023/05/31 08:00:08;;;;;;;16.55;8.27;;;;;;;-144.85;100.00;61331.59;5081905;28;32868;-75
2023/05/31 08:02:40;;;;;;;14.25;8.32;;;;;;;-144.85;100.00;61331.59;5077575;28;31698;-75
2023/05/31 08:05:09;;;;;;;13.27;8.40;;;;;;;-144.85;100.00;61331.59;5098678;28;31891;-75
2023/05/31 08:07:36;;;;;;;13.57;8.07;;;;;;;-144.85;100.00;61331.59;5099673;28;32698;-74
2023/05/31 08:10:03;;;;;;;16.48;8.13;;;;;;;-144.85;100.00;61331.59;5081870;28;33121;-75
2023/05/31 08:12:37;;;;;;;12.48;7.47;;;;;;;-144.85;100.00;61331.59;5062153;28;32912;-75
2023/05/31 08:15:28;;;;;;;14.20;7.72;;;;;;;-144.85;100.00;61331.59;5060792;28;31777;-75
2023/05/31 08:17:55;;;;;;;13.23;7.40;;;;;;;-144.85;100.00;61331.59;5088776;28;32540;-76
2023/05/31 08:20:23;;;;;;;14.07;7.90;;;;;;;-144.85;100.00;61331.59;5096512;28;31747;-76
2023/05/31 08:22:50;;;;;;;13.98;7.63;;;;;;;-144.85;100.00;61331.59;5099765;28;33315;-75
2023/05/31 08:25:18;;;;;;;14.52;7.50;;;;;;;-144.85;100.00;61331.59;5108419;28;31606;-76
2023/05/31 08:27:45;;;;;;;12.65;7.70;;;;;;;-144.85;100.00;61331.59;5082557;28;32718;-76
2023/05/31 08:30:13;;;;;;;15.02;7.93;;;;;;;-144.85;100.00;61331.59;5093606;28;33250;-75
2023/05/31 08:32:43;;;;;;;13.75;7.75;;;;;;;-144.85;100.00;61331.59;5074992;28;32561;-75
2023/05/31 08:35:10;;;;;;;11.52;6.32;;;;;;;-144.85;100.00;61331.59;5081703;28;31843;-75
2023/05/31 08:37:38;;;;;;;12.27;6.88;;;;;;;-144.85;100.00;61331.59;5093144;28;32328;-75
2023/05/31 08:40:05;;;;;;;15.90;7.90;;;;;;;-144.85;100.00;61331.59;5073165;28;33079;-75
2023/05/31 08:42:42;;;;;;;12.68;7.35;;;;;;;-144.85;100.00;61331.59;5078737;28;32108;-75
2023/05/31 08:45:10;;;;;;;13.73;7.93;;;;;;;-144.85;100.00;61331.59;5099107;28;31374;-75
2023/05/31 08:47:47;;;;;;;11.18;7.07;;;;;;;-144.85;100.00;61331.59;5083826;28;33360;-76
2023/05/31 08:50:16;;;;;;;11.40;6.95;;;;;;;-144.85;100.00;61331.59;5096214;28;32061;-76
2023/05/31 08:52:45;;;;;;;13.38;7.72;;;;;;;-144.85;100.00;61331.59;5098667;28;31788;-75
2023/05/31 08:55:12;;;;;;;11.85;6.78;;;;;;;-144.85;100.00;61331.59;5098811;28;31456;-76
2023/05/31 08:57:41;;;;;;;12.32;6.95;;;;;;;-144.85;100.00;61331.59;5061611;28;32434;-76
2023/05/31 09:00:10;;;;;;;12.43;7.05;;;;;;;-144.85;100.00;61331.59;5090693;28;32877;-76
2023/05/31 09:02:38;;;;;;;12.57;7.40;;;;;;;-144.85;100.00;61331.59;5101285;27;31236;-74
2023/05/31 09:05:10;;;;;;;11.32;6.50;;;;;;;-144.85;100.00;61331.59;5081606;28;31746;-73
2023/05/31 09:07:38;;;;;;;11.35;7.53;;;;;;;-144.85;100.00;61331.59;5083482;28;32285;-73
2023/05/31 09:10:08;;;;;;;12.10;7.68;;;;;;;-144.85;100.00;61331.59;5082331;28;32203;-73
2023/05/31 09:12:36;;;;;;;15.93;6.90;;;;;;;-144.85;100.00;61331.59;5071470;28;30855;-73
2023/05/31 09:15:05;;;;;;;11.75;5.90;;;;;;;-144.85;100.00;61331.59;5095073;28;31456;-74
2023/05/31 09:17:32;;;;;;;13.77;6.55;;;;;;;-144.85;100.00;61331.59;5098906;28;32402;-73
2023/05/31 09:20:00;;;;;;;12.30;6.18;;;;;;;-144.85;100.00;61331.59;5063151;28;31068;-73
2023/05/31 09:22:27;;;;;;;11.38;5.93;;;;;;;-144.85;100.00;61331.59;5080409;28;31434;-73
2023/05/31 09:24:56;;;;;;;10.95;6.30;;;;;;;-144.85;100.00;61331.59;5098643;28;31406;-74
2023/05/31 09:27:26;;;;;;;12.52;6.78;;;;;;;-144.85;100.00;61331.59;5093590;28;32136;-74
2023/05/31 09:29:54;;;;;;;12.48;6.82;;;;;;;-144.85;100.00;61331.59;5080367;28;30977;-74
2023/05/31 09:32:21;;;;;;;14.77;6.90;;;;;;;-144.85;100.00;61331.59;5088364;28;32815;-74
2023/05/31 09:34:49;;;;;;;12.98;7.32;;;;;;;-144.85;100.00;61331.59;5077781;28;30442;-73
2023/05/31 09:37:23;;;;;;;14.75;7.82;;;;;;;-144.85;100.00;61331.59;5094085;28;33091;-73
2023/05/31 09:39:57;;;;;;;11.95;6.53;;;;;;;-144.85;100.00;61331.59;5061226;28;33163;-73
2023/05/31 09:42:26;;;;;;;11.70;5.47;;;;;;;-144.85;100.00;61331.59;5109412;28;31878;-74
2023/05/31 09:44:53;;;;;;;12.63;6.75;;;;;;;-144.85;100.00;61331.59;5099133;28;31597;-74
2023/05/31 09:47:25;;;;;;;14.40;7.60;;;;;;;-144.85;100.00;61331.59;5079384;28;31365;-74
2023/05/31 09:49:54;;;;;;;8.98;5.53;;;;;;;-144.85;100.00;61331.59;5097737;28;33178;-75
2023/05/31 09:52:30;;;;;;;9.73;5.30;;;;;;;-144.85;100.00;61331.59;5098020;28;33358;-73
2023/05/31 09:55:05;;;;;;;9.95;5.85;;;;;;;-144.85;100.00;61331.59;5097409;28;31519;-73
2023/05/31 09:57:40;;;;;;;11.27;6.40;;;;;;;-144.85;100.00;61331.59;5083264;28;32590;-74
2023/05/31 10:00:13;;;;;;;10.73;5.45;;;;;;;-144.85;100.00;61331.59;5075431;28;32305;-74
2023/05/31 10:02:45;;;;;;;10.27;4.65;;;;;;;-144.85;100.00;61331.59;5090446;28;32302;-74
2023/05/31 10:05:14;;;;;;;10.23;5.80;;;;;;;-144.85;100.00;61331.59;5093451;28;32537;-74
2023/05/31 10:07:51;;;;;;;10.27;5.50;;;;;;;-144.85;100.00;61331.59;5095786;28;32235;-73
2023/05/31 10:10:20;;;;;;;12.77;6.15;;;;;;;-144.85;100.00;61331.59;5094977;28;31756;-73
2023/05/31 10:12:54;;;;;;;10.98;5.53;;;;;;;-144.85;100.00;61331.59;5078823;28;30730;-74
2023/05/31 10:15:23;;;;;;;10.55;5.30;;;;;;;-144.85;100.00;61331.59;5078678;28;32369;-74
2023/05/31 10:18:00;;;;;;;9.18;5.63;;;;;;;-144.85;100.00;61331.59;5083343;28;31588;-74
2023/05/31 10:20:41;;;;;;;12.25;5.45;;;;;;;-144.85;100.00;61331.59;5070730;28;33011;-73
2023/05/31 10:23:16;;;;;;;13.10;5.68;;;;;;;-144.85;100.00;61331.59;5097511;28;32653;-73
2023/05/31 10:26:15;;;;;;;8.93;4.82;;;;;;;-144.85;100.00;61331.59;5096415;28;31348;-73
2023/05/31 10:29:05;;;;;;;10.75;5.35;;;;;;;-144.85;100.00;61331.59;5068676;28;33461;-74
2023/05/31 10:31:43;;;;;;;9.00;4.68;;;;;;;-144.85;100.00;61331.59;5096416;28;31810;-74
2023/05/31 10:34:22;;;;;;;10.27;4.95;;;;;;;-144.85;100.00;61331.59;5066671;28;30675;-74
2023/05/31 10:36:51;;;;;;;8.95;4.80;;;;;;;-144.85;100.00;61331.59;5081994;28;31227;-74
2023/05/31 10:39:30;;;;;;;12.02;5.47;;;;;;;-144.85;100.00;61331.59;5097484;28;32360;-73
2023/05/31 10:42:09;;;;;;;11.80;5.55;;;;;;;-144.85;100.00;61331.59;5077036;28;32157;-73
2023/05/31 10:44:48;;;;;;;10.10;4.90;;;;;;;-144.85;100.00;61331.59;5094847;28;31791;-74
2023/05/31 10:47:20;;;;;;;11.82;5.18;;;;;;;-144.85;100.00;61331.59;5090289;28;30773;-74
2023/05/31 10:49:49;;;;;;;8.63;4.80;;;;;;;-144.85;100.00;61331.59;5076983;28;32519;-74
2023/05/31 10:52:16;;;;;;;9.40;5.00;;;;;;;-144.85;100.00;61331.59;5095162;28;32061;-76
2023/05/31 10:54:43;;;;;;;11.43;5.10;;;;;;;-144.85;100.00;61331.59;5100767;28;32146;-74
2023/05/31 10:57:12;;;;;;;12.93;4.50;;;;;;;-144.85;100.00;61331.59;5075469;28;30427;-75
2023/05/31 10:59:42;;;;;;;11.25;4.15;;;;;;;-144.85;100.00;61331.59;5079971;28;31249;-75
2023/05/31 11:02:10;;;;;;;11.90;4.47;;;;;;;-144.85;100.00;61331.59;5097029;28;33161;-74
2023/05/31 11:04:37;;;;;;;8.40;3.33;;;;;;;-144.85;100.00;61331.59;5082235;28;31905;-74
2023/05/31 11:07:14;;;;;;;7.97;3.63;;;;;;;-144.85;100.00;61331.59;5096836;28;32367;-74
2023/05/31 11:09:56;;;;;;;7.90;3.30;;;;;;;-144.85;100.00;61331.59;5065434;28;32300;-75
2023/05/31 11:12:40;;;;;;;5.75;3.00;;;;;;;-144.85;100.00;61331.59;5066294;28;31034;-74
2023/05/31 11:15:16;;;;;;;8.90;3.67;;;;;;;-144.85;100.00;61331.59;5090494;28;32277;-74
2023/05/31 11:17:54;;;;;;;9.48;4.07;;;;;;;-144.85;100.00;61331.59;5065043;28;30367;-74